sensor_id;sensor_type;location;lat;lon;timestamp;P1;durP1;ratioP1;P2;durP2;ratioP2
29246;SDS011;16272;48.188;9.964;2023-10-19T00:01:54;36.78;;;18.20;;
29246;SDS011;16272;48.188;9.964;2023-10-19T00:04:20;36.90;;;18.05;;
29246;SDS011;16272;48.188;9.964;2023-10-19T00:06:47;35.73;;;17.10;;
29246;SDS011;16272;48.188;9.964;2023-10-19T00:09:13;36.03;;;16.50;;
29246;SDS011;16272;48.188;9.964;2023-10-19T00:11:40;32.63;;;16.85;;
29246;SDS011;16272;48.188;9.964;2023-10-19T00:14:05;34.00;;;16.27;;
29246;SDS011;16272;48.188;9.964;2023-10-19T00:16:40;36.70;;;17.23;;
29246;SDS011;16272;48.188;9.964;2023-10-19T00:19:05;37.43;;;16.27;;
29246;SDS011;16272;48.188;9.964;2023-10-19T00:21:31;36.80;;;17.35;;
29246;SDS011;16272;48.188;9.964;2023-10-19T00:24:13;42.35;;;21.95;;
29246;SDS011;16272;48.188;9.964;2023-10-19T00:26:41;36.92;;;18.05;;
29246;SDS011;16272;48.188;9.964;2023-10-19T00:29:07;32.93;;;16.57;;
29246;SDS011;16272;48.188;9.964;2023-10-19T00:31:51;33.03;;;16.55;;
29246;SDS011;16272;48.188;9.964;2023-10-19T00:34:16;33.13;;;16.33;;
29246;SDS011;16272;48.188;9.964;2023-10-19T00:36:41;33.17;;;15.37;;
29246;SDS011;16272;48.188;9.964;2023-10-19T00:39:07;33.97;;;15.90;;
29246;SDS011;16272;48.188;9.964;2023-10-19T00:41:40;33.57;;;15.97;;
29246;SDS011;16272;48.188;9.964;2023-10-19T00:44:07;32.83;;;15.15;;
29246;SDS011;16272;48.188;9.964;2023-10-19T00:46:35;33.30;;;15.98;;
29246;SDS011;16272;48.188;9.964;2023-10-19T00:49:07;31.00;;;15.48;;
29246;SDS011;16272;48.188;9.964;2023-10-19T00:51:44;30.70;;;15.05;;
29246;SDS011;16272;48.188;9.964;2023-10-19T00:54:27;36.50;;;19.48;;
29246;SDS011;16272;48.188;9.964;2023-10-19T00:57:01;31.75;;;16.38;;
29246;SDS011;16272;48.188;9.964;2023-10-19T00:59:37;31.55;;;15.52;;
29246;SDS011;16272;48.188;9.964;2023-10-19T01:02:14;29.53;;;14.30;;
29246;SDS011;16272;48.188;9.964;2023-10-19T01:04:47;29.63;;;15.02;;
29246;SDS011;16272;48.188;9.964;2023-10-19T01:07:30;30.65;;;15.57;;
29246;SDS011;16272;48.188;9.964;2023-10-19T01:09:59;31.45;;;15.32;;
29246;SDS011;16272;48.188;9.964;2023-10-19T01:12:29;29.13;;;14.98;;
29246;SDS011;16272;48.188;9.964;2023-10-19T01:15:00;28.53;;;14.57;;
29246;SDS011;16272;48.188;9.964;2023-10-19T01:17:28;27.98;;;14.13;;
29246;SDS011;16272;48.188;9.964;2023-10-19T01:19:56;28.70;;;13.95;;
29246;SDS011;16272;48.188;9.964;2023-10-19T01:22:23;28.75;;;14.55;;
29246;SDS011;16272;48.188;9.964;2023-10-19T01:24:51;28.95;;;14.05;;
29246;SDS011;16272;48.188;9.964;2023-10-19T01:27:18;30.57;;;14.83;;
29246;SDS011;16272;48.188;9.964;2023-10-19T01:29:43;27.57;;;14.57;;
29246;SDS011;16272;48.188;9.964;2023-10-19T01:32:09;32.03;;;14.68;;
29246;SDS011;16272;48.188;9.964;2023-10-19T01:34:35;30.23;;;15.30;;
29246;SDS011;16272;48.188;9.964;2023-10-19T01:37:02;29.90;;;14.90;;
29246;SDS011;16272;48.188;9.964;2023-10-19T01:39:30;32.80;;;14.87;;
29246;SDS011;16272;48.188;9.964;2023-10-19T01:41:57;33.22;;;15.10;;
29246;SDS011;16272;48.188;9.964;2023-10-19T01:44:23;32.13;;;15.07;;
29246;SDS011;16272;48.188;9.964;2023-10-19T01:46:49;31.27;;;14.95;;
29246;SDS011;16272;48.188;9.964;2023-10-19T01:49:15;30.87;;;15.20;;
29246;SDS011;16272;48.188;9.964;2023-10-19T01:51:51;30.80;;;14.77;;
29246;SDS011;16272;48.188;9.964;2023-10-19T01:54:16;32.77;;;15.70;;
29246;SDS011;16272;48.188;9.964;2023-10-19T01:56:43;30.70;;;14.55;;
29246;SDS011;16272;48.188;9.964;2023-10-19T01:59:08;38.00;;;19.87;;
29246;SDS011;16272;48.188;9.964;2023-10-19T02:01:34;39.10;;;18.40;;
29246;SDS011;16272;48.188;9.964;2023-10-19T02:04:03;34.83;;;16.67;;
29246;SDS011;16272;48.188;9.964;2023-10-19T02:06:31;32.28;;;15.52;;
29246;SDS011;16272;48.188;9.964;2023-10-19T02:09:06;31.17;;;15.80;;
29246;SDS011;16272;48.188;9.964;2023-10-19T02:11:53;32.85;;;15.43;;
29246;SDS011;16272;48.188;9.964;2023-10-19T02:14:22;31.97;;;15.53;;
29246;SDS011;16272;48.188;9.964;2023-10-19T02:16:50;33.72;;;17.33;;
29246;SDS011;16272;48.188;9.964;2023-10-19T02:19:18;33.88;;;15.63;;
29246;SDS011;16272;48.188;9.964;2023-10-19T02:21:45;30.58;;;15.15;;
29246;SDS011;16272;48.188;9.964;2023-10-19T02:24:14;33.78;;;18.95;;
29246;SDS011;16272;48.188;9.964;2023-10-19T02:26:40;30.20;;;15.87;;
29246;SDS011;16272;48.188;9.964;2023-10-19T02:29:07;29.08;;;15.00;;
29246;SDS011;16272;48.188;9.964;2023-10-19T02:31:33;27.77;;;13.93;;
29246;SDS011;16272;48.188;9.964;2023-10-19T02:33:59;27.70;;;14.27;;
29246;SDS011;16272;48.188;9.964;2023-10-19T02:36:27;28.27;;;14.40;;
29246;SDS011;16272;48.188;9.964;2023-10-19T02:38:56;27.75;;;13.98;;
29246;SDS011;16272;48.188;9.964;2023-10-19T02:41:25;27.98;;;13.98;;
29246;SDS011;16272;48.188;9.964;2023-10-19T02:43:52;28.92;;;14.48;;
29246;SDS011;16272;48.188;9.964;2023-10-19T02:46:34;29.17;;;13.80;;
29246;SDS011;16272;48.188;9.964;2023-10-19T02:49:07;29.27;;;14.37;;
29246;SDS011;16272;48.188;9.964;2023-10-19T02:51:43;26.75;;;13.40;;
29246;SDS011;16272;48.188;9.964;2023-10-19T02:54:12;27.23;;;12.73;;
29246;SDS011;16272;48.188;9.964;2023-10-19T02:56:43;34.05;;;18.48;;
29246;SDS011;16272;48.188;9.964;2023-10-19T02:59:12;29.50;;;15.40;;
29246;SDS011;16272;48.188;9.964;2023-10-19T03:01:41;30.55;;;14.35;;
29246;SDS011;16272;48.188;9.964;2023-10-19T03:04:09;27.03;;;13.53;;
29246;SDS011;16272;48.188;9.964;2023-10-19T03:06:37;26.58;;;13.82;;
29246;SDS011;16272;48.188;9.964;2023-10-19T03:09:05;28.98;;;12.52;;
29246;SDS011;16272;48.188;9.964;2023-10-19T03:11:45;23.92;;;11.15;;
29246;SDS011;16272;48.188;9.964;2023-10-19T03:14:10;26.60;;;11.53;;
29246;SDS011;16272;48.188;9.964;2023-10-19T03:16:37;22.67;;;11.75;;
29246;SDS011;16272;48.188;9.964;2023-10-19T03:19:02;23.73;;;11.83;;
29246;SDS011;16272;48.188;9.964;2023-10-19T03:21:29;26.37;;;12.77;;
29246;SDS011;16272;48.188;9.964;2023-10-19T03:23:58;25.10;;;12.05;;
29246;SDS011;16272;48.188;9.964;2023-10-19T03:26:26;24.30;;;12.48;;
29246;SDS011;16272;48.188;9.964;2023-10-19T03:29:02;23.77;;;12.70;;
29246;SDS011;16272;48.188;9.964;2023-10-19T03:31:37;26.02;;;13.07;;
29246;SDS011;16272;48.188;9.964;2023-10-19T03:34:08;25.83;;;12.27;;
29246;SDS011;16272;48.188;9.964;2023-10-19T03:36:43;27.02;;;12.50;;
29246;SDS011;16272;48.188;9.964;2023-10-19T03:39:09;24.38;;;11.82;;
29246;SDS011;16272;48.188;9.964;2023-10-19T03:41:38;24.60;;;11.98;;
29246;SDS011;16272;48.188;9.964;2023-10-19T03:44:08;24.10;;;11.47;;
29246;SDS011;16272;48.188;9.964;2023-10-19T03:46:39;24.50;;;11.77;;
29246;SDS011;16272;48.188;9.964;2023-10-19T03:49:17;25.13;;;11.13;;
29246;SDS011;16272;48.188;9.964;2023-10-19T03:51:44;24.60;;;11.90;;
29246;SDS011;16272;48.188;9.964;2023-10-19T03:54:46;23.42;;;10.82;;
29246;SDS011;16272;48.188;9.964;2023-10-19T03:57:13;27.83;;;10.53;;
29246;SDS011;16272;48.188;9.964;2023-10-19T03:59:49;30.50;;;11.77;;
29246;SDS011;16272;48.188;9.964;2023-10-19T04:02:17;46.13;;;11.82;;
29246;SDS011;16272;48.188;9.964;2023-10-19T04:04:45;26.33;;;11.40;;
29246;SDS011;16272;48.188;9.964;2023-10-19T04:07:14;22.38;;;11.40;;
29246;SDS011;16272;48.188;9.964;2023-10-19T04:09:46;24.60;;;11.43;;
29246;SDS011;16272;48.188;9.964;2023-10-19T04:12:30;24.70;;;11.20;;
29246;SDS011;16272;48.188;9.964;2023-10-19T04:14:56;23.95;;;11.85;;
29246;SDS011;16272;48.188;9.964;2023-10-19T04:17:22;26.40;;;12.85;;
29246;SDS011;16272;48.188;9.964;2023-10-19T04:19:49;24.33;;;11.70;;
29246;SDS011;16272;48.188;9.964;2023-10-19T04:22:16;24.52;;;12.02;;
29246;SDS011;16272;48.188;9.964;2023-10-19T04:24:47;24.63;;;12.02;;
29246;SDS011;16272;48.188;9.964;2023-10-19T04:27:12;24.27;;;12.20;;
29246;SDS011;16272;48.188;9.964;2023-10-19T04:29:38;26.85;;;13.35;;
29246;SDS011;16272;48.188;9.964;2023-10-19T04:32:05;28.03;;;13.00;;
29246;SDS011;16272;48.188;9.964;2023-10-19T04:34:31;25.40;;;12.85;;
29246;SDS011;16272;48.188;9.964;2023-10-19T04:36:57;25.57;;;12.33;;
29246;SDS011;16272;48.188;9.964;2023-10-19T04:39:22;25.10;;;12.30;;
29246;SDS011;16272;48.188;9.964;2023-10-19T04:41:49;28.20;;;13.82;;
29246;SDS011;16272;48.188;9.964;2023-10-19T04:44:15;25.23;;;12.32;;
29246;SDS011;16272;48.188;9.964;2023-10-19T04:46:40;26.13;;;12.60;;
29246;SDS011;16272;48.188;9.964;2023-10-19T04:49:06;26.30;;;13.52;;
29246;SDS011;16272;48.188;9.964;2023-10-19T04:51:31;26.60;;;12.50;;
29246;SDS011;16272;48.188;9.964;2023-10-19T04:53:58;25.48;;;12.15;;
29246;SDS011;16272;48.188;9.964;2023-10-19T04:56:23;25.80;;;12.43;;
29246;SDS011;16272;48.188;9.964;2023-10-19T04:58:49;24.97;;;12.00;;
29246;SDS011;16272;48.188;9.964;2023-10-19T05:01:14;25.27;;;12.23;;
29246;SDS011;16272;48.188;9.964;2023-10-19T05:03:40;25.53;;;12.10;;
29246;SDS011;16272;48.188;9.964;2023-10-19T05:06:06;26.42;;;12.60;;
29246;SDS011;16272;48.188;9.964;2023-10-19T05:08:31;25.27;;;12.47;;
29246;SDS011;16272;48.188;9.964;2023-10-19T05:10:58;26.88;;;13.23;;
29246;SDS011;16272;48.188;9.964;2023-10-19T05:13:24;26.65;;;12.20;;
29246;SDS011;16272;48.188;9.964;2023-10-19T05:15:55;33.65;;;17.48;;
29246;SDS011;16272;48.188;9.964;2023-10-19T05:18:24;28.55;;;13.85;;
29246;SDS011;16272;48.188;9.964;2023-10-19T05:20:50;26.67;;;13.18;;
29246;SDS011;16272;48.188;9.964;2023-10-19T05:23:20;25.00;;;12.63;;
29246;SDS011;16272;48.188;9.964;2023-10-19T05:25:49;27.80;;;12.73;;
29246;SDS011;16272;48.188;9.964;2023-10-19T05:28:18;27.50;;;13.13;;
29246;SDS011;16272;48.188;9.964;2023-10-19T05:30:44;25.85;;;12.68;;
29246;SDS011;16272;48.188;9.964;2023-10-19T05:33:09;27.47;;;12.53;;
29246;SDS011;16272;48.188;9.964;2023-10-19T05:35:35;32.53;;;16.97;;
29246;SDS011;16272;48.188;9.964;2023-10-19T05:38:05;26.97;;;13.37;;
29246;SDS011;16272;48.188;9.964;2023-10-19T05:40:30;27.05;;;13.25;;
29246;SDS011;16272;48.188;9.964;2023-10-19T05:42:56;27.10;;;12.70;;
29246;SDS011;16272;48.188;9.964;2023-10-19T05:45:23;27.23;;;12.90;;
29246;SDS011;16272;48.188;9.964;2023-10-19T05:47:49;25.93;;;12.73;;
29246;SDS011;16272;48.188;9.964;2023-10-19T05:50:14;24.43;;;12.33;;
29246;SDS011;16272;48.188;9.964;2023-10-19T05:52:43;25.63;;;12.43;;
29246;SDS011;16272;48.188;9.964;2023-10-19T05:55:11;23.75;;;11.77;;
29246;SDS011;16272;48.188;9.964;2023-10-19T05:57:37;25.30;;;13.87;;
29246;SDS011;16272;48.188;9.964;2023-10-19T06:00:10;25.20;;;12.10;;
29246;SDS011;16272;48.188;9.964;2023-10-19T06:02:43;24.27;;;12.48;;
29246;SDS011;16272;48.188;9.964;2023-10-19T06:05:10;23.45;;;12.50;;
29246;SDS011;16272;48.188;9.964;2023-10-19T06:07:36;26.35;;;13.93;;
29246;SDS011;16272;48.188;9.964;2023-10-19T06:10:02;26.80;;;13.10;;
29246;SDS011;16272;48.188;9.964;2023-10-19T06:12:31;23.85;;;12.70;;
29246;SDS011;16272;48.188;9.964;2023-10-19T06:14:57;24.37;;;12.43;;
29246;SDS011;16272;48.188;9.964;2023-10-19T06:17:22;23.23;;;12.37;;
29246;SDS011;16272;48.188;9.964;2023-10-19T06:19:48;24.13;;;12.18;;
29246;SDS011;16272;48.188;9.964;2023-10-19T06:22:14;23.73;;;12.60;;
29246;SDS011;16272;48.188;9.964;2023-10-19T06:24:41;24.75;;;11.85;;
29246;SDS011;16272;48.188;9.964;2023-10-19T06:27:06;24.20;;;12.37;;
29246;SDS011;16272;48.188;9.964;2023-10-19T06:29:31;21.20;;;11.47;;
29246;SDS011;16272;48.188;9.964;2023-10-19T06:31:57;23.50;;;12.17;;
29246;SDS011;16272;48.188;9.964;2023-10-19T06:34:22;22.70;;;11.23;;
29246;SDS011;16272;48.188;9.964;2023-10-19T06:36:47;21.60;;;10.93;;
29246;SDS011;16272;48.188;9.964;2023-10-19T06:39:13;22.13;;;10.67;;
29246;SDS011;16272;48.188;9.964;2023-10-19T06:41:38;20.60;;;10.73;;
29246;SDS011;16272;48.188;9.964;2023-10-19T06:44:04;21.33;;;10.60;;
29246;SDS011;16272;48.188;9.964;2023-10-19T06:46:30;22.30;;;11.80;;
29246;SDS011;16272;48.188;9.964;2023-10-19T06:48:56;22.90;;;11.25;;
29246;SDS011;16272;48.188;9.964;2023-10-19T06:51:25;22.55;;;12.07;;
29246;SDS011;16272;48.188;9.964;2023-10-19T06:53:51;25.58;;;11.10;;
29246;SDS011;16272;48.188;9.964;2023-10-19T06:56:17;23.10;;;11.70;;
29246;SDS011;16272;48.188;9.964;2023-10-19T06:58:42;27.13;;;13.00;;
29246;SDS011;16272;48.188;9.964;2023-10-19T07:01:08;23.17;;;11.97;;
29246;SDS011;16272;48.188;9.964;2023-10-19T07:03:33;22.55;;;11.98;;
29246;SDS011;16272;48.188;9.964;2023-10-19T07:05:58;24.07;;;12.10;;
29246;SDS011;16272;48.188;9.964;2023-10-19T07:08:25;24.98;;;12.75;;
29246;SDS011;16272;48.188;9.964;2023-10-19T07:10:52;23.97;;;12.47;;
29246;SDS011;16272;48.188;9.964;2023-10-19T07:13:18;23.60;;;12.70;;
29246;SDS011;16272;48.188;9.964;2023-10-19T07:15:45;22.95;;;12.60;;
29246;SDS011;16272;48.188;9.964;2023-10-19T07:18:11;23.83;;;12.68;;
29246;SDS011;16272;48.188;9.964;2023-10-19T07:20:37;25.70;;;13.60;;
29246;SDS011;16272;48.188;9.964;2023-10-19T07:23:04;28.08;;;13.43;;
29246;SDS011;16272;48.188;9.964;2023-10-19T07:25:51;24.25;;;13.20;;
29246;SDS011;16272;48.188;9.964;2023-10-19T07:28:19;24.75;;;12.32;;
29246;SDS011;16272;48.188;9.964;2023-10-19T07:30:46;24.40;;;13.15;;
29246;SDS011;16272;48.188;9.964;2023-10-19T07:33:12;24.43;;;13.13;;
29246;SDS011;16272;48.188;9.964;2023-10-19T07:35:45;24.63;;;12.93;;
29246;SDS011;16272;48.188;9.964;2023-10-19T07:38:15;27.23;;;15.95;;
29246;SDS011;16272;48.188;9.964;2023-10-19T07:40:41;24.03;;;12.30;;
29246;SDS011;16272;48.188;9.964;2023-10-19T07:43:08;25.17;;;13.00;;
29246;SDS011;16272;48.188;9.964;2023-10-19T07:45:34;20.97;;;12.13;;
29246;SDS011;16272;48.188;9.964;2023-10-19T07:47:59;21.13;;;13.10;;
29246;SDS011;16272;48.188;9.964;2023-10-19T07:50:31;21.02;;;12.40;;
29246;SDS011;16272;48.188;9.964;2023-10-19T07:52:58;22.03;;;11.60;;
29246;SDS011;16272;48.188;9.964;2023-10-19T07:55:23;19.75;;;10.60;;
29246;SDS011;16272;48.188;9.964;2023-10-19T07:57:49;21.60;;;10.87;;
29246;SDS011;16272;48.188;9.964;2023-10-19T08:00:15;21.52;;;11.10;;
29246;SDS011;16272;48.188;9.964;2023-10-19T08:02:42;19.73;;;10.70;;
29246;SDS011;16272;48.188;9.964;2023-10-19T08:05:14;20.90;;;11.30;;
29246;SDS011;16272;48.188;9.964;2023-10-19T08:07:41;22.70;;;14.20;;
29246;SDS011;16272;48.188;9.964;2023-10-19T08:10:12;19.80;;;11.57;;
29246;SDS011;16272;48.188;9.964;2023-10-19T08:12:38;21.52;;;11.25;;
29246;SDS011;16272;48.188;9.964;2023-10-19T08:15:11;19.95;;;11.32;;
29246;SDS011;16272;48.188;9.964;2023-10-19T08:17:37;19.53;;;10.70;;
29246;SDS011;16272;48.188;9.964;2023-10-19T08:20:04;25.10;;;14.20;;
29246;SDS011;16272;48.188;9.964;2023-10-19T08:22:34;23.33;;;10.98;;
29246;SDS011;16272;48.188;9.964;2023-10-19T08:25:01;21.25;;;11.10;;
29246;SDS011;16272;48.188;9.964;2023-10-19T08:27:26;22.50;;;11.37;;
29246;SDS011;16272;48.188;9.964;2023-10-19T08:29:51;21.03;;;11.60;;
29246;SDS011;16272;48.188;9.964;2023-10-19T08:32:16;22.00;;;12.13;;
29246;SDS011;16272;48.188;9.964;2023-10-19T08:34:42;23.33;;;12.63;;
29246;SDS011;16272;48.188;9.964;2023-10-19T08:37:07;23.50;;;11.63;;
29246;SDS011;16272;48.188;9.964;2023-10-19T08:39:32;24.07;;;12.57;;
29246;SDS011;16272;48.188;9.964;2023-10-19T08:42:04;23.08;;;12.00;;
29246;SDS011;16272;48.188;9.964;2023-10-19T08:44:30;23.53;;;12.13;;
29246;SDS011;16272;48.188;9.964;2023-10-19T08:46:56;25.75;;;15.07;;
29246;SDS011;16272;48.188;9.964;2023-10-19T08:49:24;23.33;;;12.80;;
29246;SDS011;16272;48.188;9.964;2023-10-19T08:51:51;24.48;;;13.02;;
29246;SDS011;16272;48.188;9.964;2023-10-19T08:54:19;24.13;;;11.57;;
29246;SDS011;16272;48.188;9.964;2023-10-19T08:56:44;23.90;;;12.93;;
29246;SDS011;16272;48.188;9.964;2023-10-19T08:59:13;23.73;;;11.20;;
29246;SDS011;16272;48.188;9.964;2023-10-19T09:01:42;22.23;;;11.55;;
29246;SDS011;16272;48.188;9.964;2023-10-19T09:04:11;21.20;;;11.00;;
29246;SDS011;16272;48.188;9.964;2023-10-19T09:06:37;25.23;;;14.87;;
29246;SDS011;16272;48.188;9.964;2023-10-19T09:09:12;23.95;;;13.18;;
29246;SDS011;16272;48.188;9.964;2023-10-19T09:11:50;23.08;;;12.15;;
29246;SDS011;16272;48.188;9.964;2023-10-19T09:14:30;24.73;;;12.30;;
29246;SDS011;16272;48.188;9.964;2023-10-19T09:17:08;22.15;;;11.90;;
29246;SDS011;16272;48.188;9.964;2023-10-19T09:19:38;21.37;;;11.37;;
29246;SDS011;16272;48.188;9.964;2023-10-19T09:22:07;22.55;;;11.32;;
29246;SDS011;16272;48.188;9.964;2023-10-19T09:24:41;22.58;;;11.90;;
29246;SDS011;16272;48.188;9.964;2023-10-19T09:27:07;23.10;;;12.05;;
29246;SDS011;16272;48.188;9.964;2023-10-19T09:29:33;22.90;;;11.63;;
29246;SDS011;16272;48.188;9.964;2023-10-19T09:31:58;23.27;;;12.13;;
29246;SDS011;16272;48.188;9.964;2023-10-19T09:34:28;22.95;;;12.35;;
29246;SDS011;16272;48.188;9.964;2023-10-19T09:36:57;24.90;;;12.52;;
29246;SDS011;16272;48.188;9.964;2023-10-19T09:39:25;29.80;;;15.95;;
29246;SDS011;16272;48.188;9.964;2023-10-19T09:41:55;26.30;;;13.68;;
29246;SDS011;16272;48.188;9.964;2023-10-19T09:44:24;25.80;;;13.00;;
29246;SDS011;16272;48.188;9.964;2023-10-19T09:46:50;25.67;;;12.77;;
29246;SDS011;16272;48.188;9.964;2023-10-19T09:49:21;26.17;;;13.33;;
29246;SDS011;16272;48.188;9.964;2023-10-19T09:51:47;24.27;;;12.50;;
29246;SDS011;16272;48.188;9.964;2023-10-19T09:54:17;25.40;;;12.70;;
29246;SDS011;16272;48.188;9.964;2023-10-19T09:56:49;24.30;;;12.80;;
29246;SDS011;16272;48.188;9.964;2023-10-19T09:59:32;25.23;;;13.10;;
29246;SDS011;16272;48.188;9.964;2023-10-19T10:02:04;22.73;;;12.15;;
29246;SDS011;16272;48.188;9.964;2023-10-19T10:04:30;24.70;;;13.10;;
29246;SDS011;16272;48.188;9.964;2023-10-19T10:06:57;23.67;;;11.93;;
29246;SDS011;16272;48.188;9.964;2023-10-19T10:09:25;22.80;;;12.60;;
29246;SDS011;16272;48.188;9.964;2023-10-19T10:11:54;24.63;;;12.23;;
29246;SDS011;16272;48.188;9.964;2023-10-19T10:14:20;23.17;;;11.77;;
29246;SDS011;16272;48.188;9.964;2023-10-19T10:16:59;24.77;;;12.70;;
29246;SDS011;16272;48.188;9.964;2023-10-19T10:19:27;23.85;;;12.98;;
29246;SDS011;16272;48.188;9.964;2023-10-19T10:22:26;22.37;;;11.83;;
29246;SDS011;16272;48.188;9.964;2023-10-19T10:24:46;24.92;;;13.13;;
29246;SDS011;16272;48.188;9.964;2023-10-19T10:27:15;23.83;;;12.38;;
29246;SDS011;16272;48.188;9.964;2023-10-19T10:29:54;21.27;;;11.60;;
29246;SDS011;16272;48.188;9.964;2023-10-19T10:38:06;23.48;;;12.52;;
29246;SDS011;16272;48.188;9.964;2023-10-19T10:40:43;27.48;;;16.08;;
29246;SDS011;16272;48.188;9.964;2023-10-19T10:43:09;27.58;;;16.30;;
29246;SDS011;16272;48.188;9.964;2023-10-19T10:45:37;25.33;;;13.93;;
29246;SDS011;16272;48.188;9.964;2023-10-19T10:48:03;24.43;;;13.40;;
29246;SDS011;16272;48.188;9.964;2023-10-19T10:50:29;22.27;;;12.48;;
29246;SDS011;16272;48.188;9.964;2023-10-19T10:52:54;21.57;;;12.20;;
29246;SDS011;16272;48.188;9.964;2023-10-19T10:55:22;20.95;;;11.65;;
29246;SDS011;16272;48.188;9.964;2023-10-19T10:57:50;20.45;;;11.60;;
29246;SDS011;16272;48.188;9.964;2023-10-19T11:00:15;20.23;;;11.93;;
29246;SDS011;16272;48.188;9.964;2023-10-19T11:02:41;19.17;;;11.07;;
29246;SDS011;16272;48.188;9.964;2023-10-19T11:05:11;18.75;;;10.63;;
29246;SDS011;16272;48.188;9.964;2023-10-19T11:10:46;19.65;;;11.13;;
29246;SDS011;16272;48.188;9.964;2023-10-19T11:13:13;18.57;;;10.60;;
29246;SDS011;16272;48.188;9.964;2023-10-19T11:15:47;20.15;;;11.18;;
29246;SDS011;16272;48.188;9.964;2023-10-19T11:20:57;19.42;;;11.65;;
29246;SDS011;16272;48.188;9.964;2023-10-19T11:23:36;18.75;;;10.70;;
29246;SDS011;16272;48.188;9.964;2023-10-19T11:26:03;21.63;;;11.07;;
29246;SDS011;16272;48.188;9.964;2023-10-19T11:28:30;20.75;;;12.23;;
29246;SDS011;16272;48.188;9.964;2023-10-19T11:31:10;20.77;;;11.02;;
29246;SDS011;16272;48.188;9.964;2023-10-19T11:33:40;19.25;;;10.02;;
29246;SDS011;16272;48.188;9.964;2023-10-19T11:36:10;18.65;;;10.25;;
29246;SDS011;16272;48.188;9.964;2023-10-19T11:38:37;19.97;;;10.53;;
29246;SDS011;16272;48.188;9.964;2023-10-19T11:41:09;18.55;;;10.57;;
29246;SDS011;16272;48.188;9.964;2023-10-19T11:43:35;17.42;;;9.98;;
29246;SDS011;16272;48.188;9.964;2023-10-19T11:46:01;18.10;;;9.23;;
29246;SDS011;16272;48.188;9.964;2023-10-19T11:48:29;20.50;;;10.05;;
29246;SDS011;16272;48.188;9.964;2023-10-19T11:50:55;17.55;;;10.30;;
29246;SDS011;16272;48.188;9.964;2023-10-19T11:53:21;17.17;;;10.60;;
29246;SDS011;16272;48.188;9.964;2023-10-19T11:55:47;17.45;;;10.02;;
29246;SDS011;16272;48.188;9.964;2023-10-19T11:58:13;17.90;;;10.17;;
29246;SDS011;16272;48.188;9.964;2023-10-19T12:00:39;17.53;;;10.07;;
29246;SDS011;16272;48.188;9.964;2023-10-19T12:03:06;18.98;;;10.52;;
29246;SDS011;16272;48.188;9.964;2023-10-19T12:05:31;17.73;;;9.83;;
29246;SDS011;16272;48.188;9.964;2023-10-19T12:08:01;17.13;;;10.18;;
29246;SDS011;16272;48.188;9.964;2023-10-19T12:10:27;15.83;;;8.87;;
29246;SDS011;16272;48.188;9.964;2023-10-19T12:13:00;19.35;;;9.23;;
29246;SDS011;16272;48.188;9.964;2023-10-19T12:15:26;13.35;;;7.65;;
29246;SDS011;16272;48.188;9.964;2023-10-19T12:17:52;13.27;;;7.55;;
29246;SDS011;16272;48.188;9.964;2023-10-19T12:20:19;15.80;;;7.03;;
29246;SDS011;16272;48.188;9.964;2023-10-19T12:22:46;14.38;;;7.03;;
29246;SDS011;16272;48.188;9.964;2023-10-19T12:25:12;14.25;;;7.43;;
29246;SDS011;16272;48.188;9.964;2023-10-19T12:27:38;13.23;;;6.93;;
29246;SDS011;16272;48.188;9.964;2023-10-19T12:30:04;11.93;;;6.50;;
29246;SDS011;16272;48.188;9.964;2023-10-19T12:32:41;13.97;;;7.40;;
29246;SDS011;16272;48.188;9.964;2023-10-19T12:35:07;13.85;;;7.25;;
29246;SDS011;16272;48.188;9.964;2023-10-19T12:37:36;13.57;;;7.25;;
29246;SDS011;16272;48.188;9.964;2023-10-19T12:40:08;13.07;;;7.85;;
29246;SDS011;16272;48.188;9.964;2023-10-19T12:42:51;12.33;;;6.97;;
29246;SDS011;16272;48.188;9.964;2023-10-19T12:45:17;11.20;;;5.95;;
29246;SDS011;16272;48.188;9.964;2023-10-19T12:47:44;11.15;;;5.55;;
29246;SDS011;16272;48.188;9.964;2023-10-19T12:50:09;10.77;;;5.60;;
29246;SDS011;16272;48.188;9.964;2023-10-19T12:52:38;10.25;;;5.05;;
29246;SDS011;16272;48.188;9.964;2023-10-19T12:55:05;10.73;;;5.10;;
29246;SDS011;16272;48.188;9.964;2023-10-19T12:57:31;9.95;;;4.78;;
29246;SDS011;16272;48.188;9.964;2023-10-19T12:59:57;10.60;;;4.93;;
29246;SDS011;16272;48.188;9.964;2023-10-19T13:02:23;10.93;;;4.80;;
29246;SDS011;16272;48.188;9.964;2023-10-19T13:04:49;9.70;;;4.90;;
29246;SDS011;16272;48.188;9.964;2023-10-19T13:07:14;11.13;;;4.87;;
29246;SDS011;16272;48.188;9.964;2023-10-19T13:09:40;10.67;;;4.60;;
29246;SDS011;16272;48.188;9.964;2023-10-19T13:12:05;11.60;;;4.63;;
29246;SDS011;16272;48.188;9.964;2023-10-19T13:14:32;10.70;;;5.03;;
29246;SDS011;16272;48.188;9.964;2023-10-19T13:16:59;9.93;;;4.80;;
29246;SDS011;16272;48.188;9.964;2023-10-19T13:19:24;9.60;;;4.60;;
29246;SDS011;16272;48.188;9.964;2023-10-19T13:21:50;9.68;;;4.53;;
29246;SDS011;16272;48.188;9.964;2023-10-19T13:24:17;9.03;;;4.40;;
29246;SDS011;16272;48.188;9.964;2023-10-19T13:26:45;8.73;;;4.33;;
29246;SDS011;16272;48.188;9.964;2023-10-19T13:29:11;10.13;;;4.63;;
29246;SDS011;16272;48.188;9.964;2023-10-19T13:31:37;10.73;;;4.67;;
29246;SDS011;16272;48.188;9.964;2023-10-19T13:34:02;10.40;;;5.00;;
29246;SDS011;16272;48.188;9.964;2023-10-19T13:36:29;9.77;;;4.35;;
29246;SDS011;16272;48.188;9.964;2023-10-19T13:38:55;9.30;;;4.53;;
29246;SDS011;16272;48.188;9.964;2023-10-19T13:41:20;9.53;;;4.80;;
29246;SDS011;16272;48.188;9.964;2023-10-19T13:43:45;10.00;;;4.87;;
29246;SDS011;16272;48.188;9.964;2023-10-19T13:46:12;10.13;;;4.80;;
29246;SDS011;16272;48.188;9.964;2023-10-19T13:48:37;8.70;;;4.33;;
29246;SDS011;16272;48.188;9.964;2023-10-19T13:51:04;9.65;;;4.63;;
29246;SDS011;16272;48.188;9.964;2023-10-19T13:53:40;9.87;;;4.43;;
29246;SDS011;16272;48.188;9.964;2023-10-19T13:56:08;10.43;;;4.10;;
29246;SDS011;16272;48.188;9.964;2023-10-19T13:58:34;9.43;;;4.75;;
29246;SDS011;16272;48.188;9.964;2023-10-19T14:01:00;10.37;;;4.20;;
29246;SDS011;16272;48.188;9.964;2023-10-19T14:03:25;9.77;;;4.57;;
29246;SDS011;16272;48.188;9.964;2023-10-19T14:05:50;9.33;;;4.70;;
29246;SDS011;16272;48.188;9.964;2023-10-19T14:08:18;9.75;;;4.38;;
29246;SDS011;16272;48.188;9.964;2023-10-19T14:10:45;9.48;;;3.97;;
29246;SDS011;16272;48.188;9.964;2023-10-19T14:13:11;8.85;;;4.07;;
29246;SDS011;16272;48.188;9.964;2023-10-19T14:15:38;8.33;;;3.87;;
29246;SDS011;16272;48.188;9.964;2023-10-19T14:18:03;11.07;;;4.28;;
29246;SDS011;16272;48.188;9.964;2023-10-19T14:20:30;9.40;;;4.40;;
29246;SDS011;16272;48.188;9.964;2023-10-19T14:22:56;9.70;;;4.55;;
29246;SDS011;16272;48.188;9.964;2023-10-19T14:25:21;9.00;;;4.30;;
29246;SDS011;16272;48.188;9.964;2023-10-19T14:27:48;9.93;;;4.55;;
29246;SDS011;16272;48.188;9.964;2023-10-19T14:30:15;8.88;;;4.63;;
29246;SDS011;16272;48.188;9.964;2023-10-19T14:32:43;9.37;;;4.30;;
29246;SDS011;16272;48.188;9.964;2023-10-19T14:35:13;8.80;;;4.13;;
29246;SDS011;16272;48.188;9.964;2023-10-19T14:37:41;9.32;;;4.60;;
29246;SDS011;16272;48.188;9.964;2023-10-19T14:40:08;10.18;;;4.50;;
29246;SDS011;16272;48.188;9.964;2023-10-19T14:42:38;9.57;;;4.57;;
29246;SDS011;16272;48.188;9.964;2023-10-19T14:45:05;10.73;;;5.20;;